Borderland, West Virginia
Current Conditions -  °F | °C
As of 8:15 AM on Thursday 27 Nov 2014 (Local Time) from KPBX Reporting Station
Light Snow Light Snow  
Wind Chill: 24°   Ceiling: 800
Heat Index: 31°   Visibility: 2.5mi
Dew Point: 30°   Wind: 8mph
Humidity: 94%   Direction: 310°NW
Pressure: 30.12"   Gusts: NA
Location:  37.71°N, 82.31°W
Report Text: KPBX 271315Z AUTO 31007KT 2 1/2SM -SN BKN008 OVC017 00/M01 A3012 RMK AO2 T10051013
Loading
Personal Weather Stations






























Interactive Weather Map New forecast layout! Learn more

10-Day Weather Forecast

Advertisements
Track Severe Weather on mobile